sensor_id;sensor_type;location;lat;lon;timestamp;P1;durP1;ratioP1;P2;durP2;ratioP2
11572;SDS011;5842;52.426;4.886;2023-04-03T00:00:47;2.67;;;1.63;;
11572;SDS011;5842;52.426;4.886;2023-04-03T00:03:15;1.90;;;1.60;;
11572;SDS011;5842;52.426;4.886;2023-04-03T00:05:44;2.43;;;1.50;;
11572;SDS011;5842;52.426;4.886;2023-04-03T00:08:12;4.23;;;1.60;;
11572;SDS011;5842;52.426;4.886;2023-04-03T00:10:39;3.63;;;1.37;;
11572;SDS011;5842;52.426;4.886;2023-04-03T00:13:07;1.50;;;1.40;;
11572;SDS011;5842;52.426;4.886;2023-04-03T00:15:35;2.90;;;1.40;;
11572;SDS011;5842;52.426;4.886;2023-04-03T00:18:03;2.10;;;1.47;;
11572;SDS011;5842;52.426;4.886;2023-04-03T00:20:30;2.40;;;1.80;;
11572;SDS011;5842;52.426;4.886;2023-04-03T00:22:59;2.53;;;1.60;;
11572;SDS011;5842;52.426;4.886;2023-04-03T00:25:27;3.77;;;1.57;;
11572;SDS011;5842;52.426;4.886;2023-04-03T00:27:54;6.47;;;1.90;;
11572;SDS011;5842;52.426;4.886;2023-04-03T00:30:22;4.10;;;1.60;;
11572;SDS011;5842;52.426;4.886;2023-04-03T00:32:51;2.53;;;1.57;;
11572;SDS011;5842;52.426;4.886;2023-04-03T00:35:19;4.27;;;1.60;;
11572;SDS011;5842;52.426;4.886;2023-04-03T00:37:47;3.07;;;1.70;;
11572;SDS011;5842;52.426;4.886;2023-04-03T00:40:16;4.37;;;1.73;;
11572;SDS011;5842;52.426;4.886;2023-04-03T00:42:44;2.93;;;1.67;;
11572;SDS011;5842;52.426;4.886;2023-04-03T00:47:55;4.13;;;2.00;;
11572;SDS011;5842;52.426;4.886;2023-04-03T00:50:24;3.43;;;1.70;;
11572;SDS011;5842;52.426;4.886;2023-04-03T00:52:52;5.30;;;1.90;;
11572;SDS011;5842;52.426;4.886;2023-04-03T00:55:21;3.00;;;1.70;;
11572;SDS011;5842;52.426;4.886;2023-04-03T00:57:49;2.90;;;1.77;;
11572;SDS011;5842;52.426;4.886;2023-04-03T01:00:19;5.30;;;2.13;;
11572;SDS011;5842;52.426;4.886;2023-04-03T01:02:48;3.57;;;1.77;;
11572;SDS011;5842;52.426;4.886;2023-04-03T01:05:16;4.53;;;2.00;;
11572;SDS011;5842;52.426;4.886;2023-04-03T01:07:44;3.10;;;2.00;;
11572;SDS011;5842;52.426;4.886;2023-04-03T01:10:12;5.40;;;2.30;;
11572;SDS011;5842;52.426;4.886;2023-04-03T01:12:43;4.43;;;1.80;;
11572;SDS011;5842;52.426;4.886;2023-04-03T01:15:12;4.60;;;2.40;;
11572;SDS011;5842;52.426;4.886;2023-04-03T01:17:40;4.63;;;1.87;;
11572;SDS011;5842;52.426;4.886;2023-04-03T01:20:22;5.40;;;2.13;;
11572;SDS011;5842;52.426;4.886;2023-04-03T01:22:56;5.13;;;2.13;;
11572;SDS011;5842;52.426;4.886;2023-04-03T01:25:26;4.90;;;2.10;;
11572;SDS011;5842;52.426;4.886;2023-04-03T01:27:55;3.77;;;1.90;;
11572;SDS011;5842;52.426;4.886;2023-04-03T01:30:24;3.67;;;2.00;;
11572;SDS011;5842;52.426;4.886;2023-04-03T01:32:55;4.03;;;2.00;;
11572;SDS011;5842;52.426;4.886;2023-04-03T01:35:22;3.93;;;2.30;;
11572;SDS011;5842;52.426;4.886;2023-04-03T01:37:50;3.33;;;2.30;;
11572;SDS011;5842;52.426;4.886;2023-04-03T01:40:17;3.40;;;2.33;;
11572;SDS011;5842;52.426;4.886;2023-04-03T01:42:45;3.57;;;2.00;;
11572;SDS011;5842;52.426;4.886;2023-04-03T01:45:12;5.20;;;2.33;;
11572;SDS011;5842;52.426;4.886;2023-04-03T01:47:40;3.90;;;2.40;;
11572;SDS011;5842;52.426;4.886;2023-04-03T01:50:09;4.33;;;2.20;;
11572;SDS011;5842;52.426;4.886;2023-04-03T01:52:36;4.57;;;2.00;;
11572;SDS011;5842;52.426;4.886;2023-04-03T01:55:04;6.23;;;2.17;;
11572;SDS011;5842;52.426;4.886;2023-04-03T01:57:31;4.17;;;2.10;;
11572;SDS011;5842;52.426;4.886;2023-04-03T01:59:59;2.83;;;2.10;;
11572;SDS011;5842;52.426;4.886;2023-04-03T02:02:26;5.73;;;2.63;;
11572;SDS011;5842;52.426;4.886;2023-04-03T02:04:54;3.70;;;2.10;;
11572;SDS011;5842;52.426;4.886;2023-04-03T02:07:23;4.10;;;2.20;;
11572;SDS011;5842;52.426;4.886;2023-04-03T02:09:51;4.83;;;2.20;;
11572;SDS011;5842;52.426;4.886;2023-04-03T02:12:18;3.07;;;2.23;;
11572;SDS011;5842;52.426;4.886;2023-04-03T02:14:46;5.43;;;2.30;;
11572;SDS011;5842;52.426;4.886;2023-04-03T02:17:13;3.83;;;2.17;;
11572;SDS011;5842;52.426;4.886;2023-04-03T02:19:41;6.00;;;2.37;;
11572;SDS011;5842;52.426;4.886;2023-04-03T02:22:08;4.73;;;2.40;;
11572;SDS011;5842;52.426;4.886;2023-04-03T02:24:37;5.03;;;2.50;;
11572;SDS011;5842;52.426;4.886;2023-04-03T02:27:08;5.13;;;2.60;;
11572;SDS011;5842;52.426;4.886;2023-04-03T02:29:35;4.30;;;2.53;;
11572;SDS011;5842;52.426;4.886;2023-04-03T02:32:03;5.03;;;2.77;;
11572;SDS011;5842;52.426;4.886;2023-04-03T02:34:30;5.27;;;2.50;;
11572;SDS011;5842;52.426;4.886;2023-04-03T02:36:58;5.90;;;2.70;;
11572;SDS011;5842;52.426;4.886;2023-04-03T02:39:25;5.40;;;2.70;;
11572;SDS011;5842;52.426;4.886;2023-04-03T02:41:54;3.47;;;2.30;;
11572;SDS011;5842;52.426;4.886;2023-04-03T02:44:22;6.27;;;2.67;;
11572;SDS011;5842;52.426;4.886;2023-04-03T02:46:49;5.27;;;2.60;;
11572;SDS011;5842;52.426;4.886;2023-04-03T02:49:17;5.30;;;2.50;;
11572;SDS011;5842;52.426;4.886;2023-04-03T02:51:44;3.80;;;2.40;;
11572;SDS011;5842;52.426;4.886;2023-04-03T02:54:12;5.87;;;2.40;;
11572;SDS011;5842;52.426;4.886;2023-04-03T02:56:40;4.97;;;2.43;;
11572;SDS011;5842;52.426;4.886;2023-04-03T02:59:09;4.73;;;2.63;;
11572;SDS011;5842;52.426;4.886;2023-04-03T03:01:37;6.87;;;2.50;;
11572;SDS011;5842;52.426;4.886;2023-04-03T03:04:04;6.03;;;3.10;;
11572;SDS011;5842;52.426;4.886;2023-04-03T03:06:32;3.93;;;2.37;;
11572;SDS011;5842;52.426;4.886;2023-04-03T03:08:59;5.37;;;2.60;;
11572;SDS011;5842;52.426;4.886;2023-04-03T03:11:28;5.63;;;2.50;;
11572;SDS011;5842;52.426;4.886;2023-04-03T03:13:56;4.43;;;2.50;;
11572;SDS011;5842;52.426;4.886;2023-04-03T03:16:25;5.13;;;2.90;;
11572;SDS011;5842;52.426;4.886;2023-04-03T03:18:52;5.00;;;2.53;;
11572;SDS011;5842;52.426;4.886;2023-04-03T03:21:20;4.30;;;2.60;;
11572;SDS011;5842;52.426;4.886;2023-04-03T03:23:48;7.60;;;2.57;;
11572;SDS011;5842;52.426;4.886;2023-04-03T03:26:15;6.13;;;3.00;;
11572;SDS011;5842;52.426;4.886;2023-04-03T03:28:46;4.83;;;2.67;;
11572;SDS011;5842;52.426;4.886;2023-04-03T03:31:13;7.10;;;2.33;;
11572;SDS011;5842;52.426;4.886;2023-04-03T03:33:42;6.80;;;2.70;;
11572;SDS011;5842;52.426;4.886;2023-04-03T03:36:09;6.20;;;2.57;;
11572;SDS011;5842;52.426;4.886;2023-04-03T03:38:37;5.37;;;2.57;;
11572;SDS011;5842;52.426;4.886;2023-04-03T03:41:04;4.90;;;2.53;;
11572;SDS011;5842;52.426;4.886;2023-04-03T03:43:32;4.90;;;2.93;;
11572;SDS011;5842;52.426;4.886;2023-04-03T03:45:59;5.33;;;2.83;;
11572;SDS011;5842;52.426;4.886;2023-04-03T03:48:26;4.40;;;2.70;;
11572;SDS011;5842;52.426;4.886;2023-04-03T03:50:55;5.50;;;3.03;;
11572;SDS011;5842;52.426;4.886;2023-04-03T03:53:23;4.73;;;2.77;;
11572;SDS011;5842;52.426;4.886;2023-04-03T03:55:50;6.23;;;2.80;;
11572;SDS011;5842;52.426;4.886;2023-04-03T03:58:18;7.17;;;3.13;;
11572;SDS011;5842;52.426;4.886;2023-04-03T04:00:45;4.27;;;2.60;;
11572;SDS011;5842;52.426;4.886;2023-04-03T04:03:13;5.97;;;2.90;;
11572;SDS011;5842;52.426;4.886;2023-04-03T04:05:40;4.70;;;3.00;;
11572;SDS011;5842;52.426;4.886;2023-04-03T04:08:09;5.73;;;3.00;;
11572;SDS011;5842;52.426;4.886;2023-04-03T04:10:36;6.73;;;2.93;;
11572;SDS011;5842;52.426;4.886;2023-04-03T04:13:05;5.17;;;2.87;;
11572;SDS011;5842;52.426;4.886;2023-04-03T04:15:32;5.17;;;3.07;;
11572;SDS011;5842;52.426;4.886;2023-04-03T04:18:00;4.83;;;3.00;;
11572;SDS011;5842;52.426;4.886;2023-04-03T04:20:27;5.00;;;3.03;;
11572;SDS011;5842;52.426;4.886;2023-04-03T04:22:55;5.20;;;3.00;;
11572;SDS011;5842;52.426;4.886;2023-04-03T04:25:23;4.57;;;3.20;;
11572;SDS011;5842;52.426;4.886;2023-04-03T04:27:51;5.57;;;3.20;;
11572;SDS011;5842;52.426;4.886;2023-04-03T04:30:18;6.20;;;3.27;;
11572;SDS011;5842;52.426;4.886;2023-04-03T04:32:46;6.27;;;3.40;;
11572;SDS011;5842;52.426;4.886;2023-04-03T04:35:13;6.40;;;3.40;;
11572;SDS011;5842;52.426;4.886;2023-04-03T04:37:40;6.60;;;3.27;;
11572;SDS011;5842;52.426;4.886;2023-04-03T04:40:09;4.90;;;3.33;;
11572;SDS011;5842;52.426;4.886;2023-04-03T04:42:38;4.87;;;2.90;;
11572;SDS011;5842;52.426;4.886;2023-04-03T04:45:06;7.03;;;3.67;;
11572;SDS011;5842;52.426;4.886;2023-04-03T04:47:34;4.40;;;3.37;;
11572;SDS011;5842;52.426;4.886;2023-04-03T04:50:02;7.70;;;3.50;;
11572;SDS011;5842;52.426;4.886;2023-04-03T04:52:29;6.17;;;3.40;;
11572;SDS011;5842;52.426;4.886;2023-04-03T04:54:57;5.40;;;3.87;;
11572;SDS011;5842;52.426;4.886;2023-04-03T04:57:24;8.37;;;3.40;;
11572;SDS011;5842;52.426;4.886;2023-04-03T04:59:53;6.83;;;3.30;;
11572;SDS011;5842;52.426;4.886;2023-04-03T05:02:21;7.20;;;4.03;;
11572;SDS011;5842;52.426;4.886;2023-04-03T05:04:49;8.00;;;3.77;;
11572;SDS011;5842;52.426;4.886;2023-04-03T05:07:17;5.17;;;3.80;;
11572;SDS011;5842;52.426;4.886;2023-04-03T05:09:45;7.50;;;3.63;;
11572;SDS011;5842;52.426;4.886;2023-04-03T05:12:12;5.77;;;3.50;;
11572;SDS011;5842;52.426;4.886;2023-04-03T05:14:40;6.07;;;3.50;;
11572;SDS011;5842;52.426;4.886;2023-04-03T05:17:09;5.83;;;3.70;;
11572;SDS011;5842;52.426;4.886;2023-04-03T05:19:36;6.67;;;3.40;;
11572;SDS011;5842;52.426;4.886;2023-04-03T05:22:04;6.80;;;4.00;;
11572;SDS011;5842;52.426;4.886;2023-04-03T05:24:31;8.33;;;3.90;;
11572;SDS011;5842;52.426;4.886;2023-04-03T05:26:59;6.87;;;3.90;;
11572;SDS011;5842;52.426;4.886;2023-04-03T05:29:26;9.60;;;3.50;;
11572;SDS011;5842;52.426;4.886;2023-04-03T05:31:54;6.00;;;3.53;;
11572;SDS011;5842;52.426;4.886;2023-04-03T05:34:23;7.40;;;4.00;;
11572;SDS011;5842;52.426;4.886;2023-04-03T05:36:50;8.77;;;4.00;;
11572;SDS011;5842;52.426;4.886;2023-04-03T05:39:18;6.63;;;4.23;;
11572;SDS011;5842;52.426;4.886;2023-04-03T05:41:46;6.60;;;4.00;;
11572;SDS011;5842;52.426;4.886;2023-04-03T05:44:13;6.60;;;3.90;;
11572;SDS011;5842;52.426;4.886;2023-04-03T05:46:41;5.53;;;3.83;;
11572;SDS011;5842;52.426;4.886;2023-04-03T05:49:08;8.77;;;4.07;;
11572;SDS011;5842;52.426;4.886;2023-04-03T05:51:38;6.50;;;3.70;;
11572;SDS011;5842;52.426;4.886;2023-04-03T05:54:08;8.87;;;3.77;;
11572;SDS011;5842;52.426;4.886;2023-04-03T05:56:36;7.43;;;4.20;;
11572;SDS011;5842;52.426;4.886;2023-04-03T05:59:04;6.30;;;3.90;;
11572;SDS011;5842;52.426;4.886;2023-04-03T06:01:32;7.30;;;3.60;;
11572;SDS011;5842;52.426;4.886;2023-04-03T06:04:00;8.17;;;3.70;;
11572;SDS011;5842;52.426;4.886;2023-04-03T06:09:12;4.57;;;3.03;;
11572;SDS011;5842;52.426;4.886;2023-04-03T06:11:39;6.27;;;3.53;;
11572;SDS011;5842;52.426;4.886;2023-04-03T06:14:08;6.13;;;3.50;;
11572;SDS011;5842;52.426;4.886;2023-04-03T06:16:35;7.10;;;3.37;;
11572;SDS011;5842;52.426;4.886;2023-04-03T06:19:03;6.37;;;3.80;;
11572;SDS011;5842;52.426;4.886;2023-04-03T06:21:31;4.20;;;3.10;;
11572;SDS011;5842;52.426;4.886;2023-04-03T06:23:59;6.17;;;3.60;;
11572;SDS011;5842;52.426;4.886;2023-04-03T06:26:28;6.83;;;2.83;;
11572;SDS011;5842;52.426;4.886;2023-04-03T06:28:56;5.17;;;3.03;;
11572;SDS011;5842;52.426;4.886;2023-04-03T06:31:23;4.80;;;2.70;;
11572;SDS011;5842;52.426;4.886;2023-04-03T06:33:51;4.17;;;2.80;;
11572;SDS011;5842;52.426;4.886;2023-04-03T06:36:19;7.10;;;3.00;;
11572;SDS011;5842;52.426;4.886;2023-04-03T06:38:49;8.97;;;3.07;;
11572;SDS011;5842;52.426;4.886;2023-04-03T06:41:17;7.50;;;3.40;;
11572;SDS011;5842;52.426;4.886;2023-04-03T06:43:46;6.30;;;2.90;;
11572;SDS011;5842;52.426;4.886;2023-04-03T06:46:14;7.50;;;3.27;;
11572;SDS011;5842;52.426;4.886;2023-04-03T06:48:43;5.67;;;2.90;;
11572;SDS011;5842;52.426;4.886;2023-04-03T06:51:14;5.90;;;2.93;;
11572;SDS011;5842;52.426;4.886;2023-04-03T06:53:44;6.57;;;3.17;;
11572;SDS011;5842;52.426;4.886;2023-04-03T06:56:12;4.53;;;3.47;;
11572;SDS011;5842;52.426;4.886;2023-04-03T06:58:40;4.43;;;3.10;;
11572;SDS011;5842;52.426;4.886;2023-04-03T07:01:12;5.63;;;3.20;;
11572;SDS011;5842;52.426;4.886;2023-04-03T07:03:40;5.47;;;3.00;;
11572;SDS011;5842;52.426;4.886;2023-04-03T07:06:09;6.10;;;3.10;;
11572;SDS011;5842;52.426;4.886;2023-04-03T07:08:38;5.53;;;2.90;;
11572;SDS011;5842;52.426;4.886;2023-04-03T07:11:06;5.40;;;2.80;;
11572;SDS011;5842;52.426;4.886;2023-04-03T07:13:34;4.00;;;2.70;;
11572;SDS011;5842;52.426;4.886;2023-04-03T07:16:02;5.07;;;2.80;;
11572;SDS011;5842;52.426;4.886;2023-04-03T07:18:32;4.00;;;2.70;;
11572;SDS011;5842;52.426;4.886;2023-04-03T07:38:21;4.53;;;2.30;;
11572;SDS011;5842;52.426;4.886;2023-04-03T07:40:49;4.40;;;2.30;;
11572;SDS011;5842;52.426;4.886;2023-04-03T07:43:18;6.73;;;2.67;;
11572;SDS011;5842;52.426;4.886;2023-04-03T07:45:46;5.50;;;2.53;;
11572;SDS011;5842;52.426;4.886;2023-04-03T07:48:15;3.93;;;2.20;;
11572;SDS011;5842;52.426;4.886;2023-04-03T07:50:43;6.33;;;2.77;;
11572;SDS011;5842;52.426;4.886;2023-04-03T07:53:11;3.33;;;2.20;;
11572;SDS011;5842;52.426;4.886;2023-04-03T07:55:40;3.70;;;2.27;;
11572;SDS011;5842;52.426;4.886;2023-04-03T07:58:11;3.43;;;2.43;;
11572;SDS011;5842;52.426;4.886;2023-04-03T08:00:41;3.57;;;2.43;;
11572;SDS011;5842;52.426;4.886;2023-04-03T08:03:09;3.83;;;2.33;;
11572;SDS011;5842;52.426;4.886;2023-04-03T08:05:37;4.27;;;2.20;;
11572;SDS011;5842;52.426;4.886;2023-04-03T08:08:05;5.37;;;2.80;;
11572;SDS011;5842;52.426;4.886;2023-04-03T08:10:33;3.70;;;2.30;;
11572;SDS011;5842;52.426;4.886;2023-04-03T08:13:02;3.87;;;2.30;;
11572;SDS011;5842;52.426;4.886;2023-04-03T08:15:30;4.80;;;2.53;;
11572;SDS011;5842;52.426;4.886;2023-04-03T08:17:58;4.30;;;2.30;;
11572;SDS011;5842;52.426;4.886;2023-04-03T08:20:25;3.27;;;2.27;;
11572;SDS011;5842;52.426;4.886;2023-04-03T08:22:55;3.50;;;2.37;;
11572;SDS011;5842;52.426;4.886;2023-04-03T08:25:23;3.00;;;2.20;;
11572;SDS011;5842;52.426;4.886;2023-04-03T08:27:51;3.77;;;2.20;;
11572;SDS011;5842;52.426;4.886;2023-04-03T08:30:20;3.57;;;2.10;;
11572;SDS011;5842;52.426;4.886;2023-04-03T08:32:47;3.63;;;2.50;;
11572;SDS011;5842;52.426;4.886;2023-04-03T08:35:15;4.07;;;2.13;;
11572;SDS011;5842;52.426;4.886;2023-04-03T08:37:42;3.67;;;2.10;;
11572;SDS011;5842;52.426;4.886;2023-04-03T08:40:12;3.73;;;2.20;;
11572;SDS011;5842;52.426;4.886;2023-04-03T08:42:43;3.00;;;2.13;;
11572;SDS011;5842;52.426;4.886;2023-04-03T08:45:13;4.07;;;2.50;;
11572;SDS011;5842;52.426;4.886;2023-04-03T08:47:45;4.57;;;2.47;;
11572;SDS011;5842;52.426;4.886;2023-04-03T08:50:15;3.10;;;1.90;;
11572;SDS011;5842;52.426;4.886;2023-04-03T08:52:44;3.30;;;2.37;;
11572;SDS011;5842;52.426;4.886;2023-04-03T08:55:16;4.23;;;2.67;;
11572;SDS011;5842;52.426;4.886;2023-04-03T08:57:46;4.27;;;2.20;;
11572;SDS011;5842;52.426;4.886;2023-04-03T09:00:23;4.23;;;2.27;;
11572;SDS011;5842;52.426;4.886;2023-04-03T09:02:52;4.43;;;2.20;;
11572;SDS011;5842;52.426;4.886;2023-04-03T09:05:24;4.33;;;2.10;;
11572;SDS011;5842;52.426;4.886;2023-04-03T09:07:57;4.50;;;2.30;;
11572;SDS011;5842;52.426;4.886;2023-04-03T09:10:27;3.07;;;2.20;;
11572;SDS011;5842;52.426;4.886;2023-04-03T09:12:58;3.57;;;2.13;;
11572;SDS011;5842;52.426;4.886;2023-04-03T09:15:29;4.10;;;2.27;;
11572;SDS011;5842;52.426;4.886;2023-04-03T09:18:00;3.17;;;2.07;;
11572;SDS011;5842;52.426;4.886;2023-04-03T09:20:37;3.33;;;1.90;;
11572;SDS011;5842;52.426;4.886;2023-04-03T09:23:11;2.83;;;2.00;;
11572;SDS011;5842;52.426;4.886;2023-04-03T09:25:42;4.03;;;2.23;;
11572;SDS011;5842;52.426;4.886;2023-04-03T09:28:10;4.40;;;2.23;;
11572;SDS011;5842;52.426;4.886;2023-04-03T09:30:41;4.60;;;1.80;;
11572;SDS011;5842;52.426;4.886;2023-04-03T09:33:10;4.10;;;2.10;;
11572;SDS011;5842;52.426;4.886;2023-04-03T09:35:38;3.30;;;2.10;;
11572;SDS011;5842;52.426;4.886;2023-04-03T09:41:02;4.27;;;2.00;;
11572;SDS011;5842;52.426;4.886;2023-04-03T09:43:31;3.43;;;1.97;;
11572;SDS011;5842;52.426;4.886;2023-04-03T09:48:48;3.20;;;2.13;;
11572;SDS011;5842;52.426;4.886;2023-04-03T09:51:16;8.93;;;2.50;;
11572;SDS011;5842;52.426;4.886;2023-04-03T09:53:44;3.73;;;1.80;;
11572;SDS011;5842;52.426;4.886;2023-04-03T09:56:19;3.00;;;2.10;;
11572;SDS011;5842;52.426;4.886;2023-04-03T09:58:48;3.07;;;1.70;;
11572;SDS011;5842;52.426;4.886;2023-04-03T10:01:26;3.23;;;1.80;;
11572;SDS011;5842;52.426;4.886;2023-04-03T10:04:05;2.93;;;1.70;;
11572;SDS011;5842;52.426;4.886;2023-04-03T10:06:33;4.87;;;2.00;;
11572;SDS011;5842;52.426;4.886;2023-04-03T10:09:06;4.07;;;1.70;;
11572;SDS011;5842;52.426;4.886;2023-04-03T10:11:43;2.80;;;1.40;;
11572;SDS011;5842;52.426;4.886;2023-04-03T10:14:23;3.23;;;1.60;;
11572;SDS011;5842;52.426;4.886;2023-04-03T10:16:52;2.57;;;1.27;;
11572;SDS011;5842;52.426;4.886;2023-04-03T10:19:31;1.77;;;1.37;;
11572;SDS011;5842;52.426;4.886;2023-04-03T10:22:04;2.73;;;1.30;;
11572;SDS011;5842;52.426;4.886;2023-04-03T10:24:36;1.30;;;1.20;;
11572;SDS011;5842;52.426;4.886;2023-04-03T10:27:07;2.23;;;1.50;;
11572;SDS011;5842;52.426;4.886;2023-04-03T10:29:39;2.60;;;1.37;;
11572;SDS011;5842;52.426;4.886;2023-04-03T10:32:11;2.13;;;1.40;;
11572;SDS011;5842;52.426;4.886;2023-04-03T10:34:44;2.30;;;1.40;;
11572;SDS011;5842;52.426;4.886;2023-04-03T10:37:14;1.20;;;1.00;;
11572;SDS011;5842;52.426;4.886;2023-04-03T10:39:46;1.50;;;1.20;;
11572;SDS011;5842;52.426;4.886;2023-04-03T10:42:18;2.47;;;1.50;;
11572;SDS011;5842;52.426;4.886;2023-04-03T10:44:59;2.97;;;1.20;;
11572;SDS011;5842;52.426;4.886;2023-04-03T10:47:30;1.43;;;1.20;;
11572;SDS011;5842;52.426;4.886;2023-04-03T10:50:02;1.53;;;1.20;;
11572;SDS011;5842;52.426;4.886;2023-04-03T10:52:33;3.43;;;1.37;;
11572;SDS011;5842;52.426;4.886;2023-04-03T10:55:06;2.00;;;1.40;;
11572;SDS011;5842;52.426;4.886;2023-04-03T10:57:37;2.33;;;1.30;;
11572;SDS011;5842;52.426;4.886;2023-04-03T11:00:06;1.83;;;1.20;;
11572;SDS011;5842;52.426;4.886;2023-04-03T11:02:35;2.53;;;1.40;;
11572;SDS011;5842;52.426;4.886;2023-04-03T11:05:07;1.20;;;1.10;;
11572;SDS011;5842;52.426;4.886;2023-04-03T11:07:37;1.13;;;1.03;;
11572;SDS011;5842;52.426;4.886;2023-04-03T11:10:10;2.33;;;1.40;;
11572;SDS011;5842;52.426;4.886;2023-04-03T11:12:41;2.83;;;1.40;;
11572;SDS011;5842;52.426;4.886;2023-04-03T11:15:11;2.40;;;1.10;;
11572;SDS011;5842;52.426;4.886;2023-04-03T11:17:41;1.60;;;1.10;;
11572;SDS011;5842;52.426;4.886;2023-04-03T11:20:16;1.53;;;1.10;;
11572;SDS011;5842;52.426;4.886;2023-04-03T11:22:45;1.23;;;1.10;;
11572;SDS011;5842;52.426;4.886;2023-04-03T11:25:15;1.83;;;1.10;;
11572;SDS011;5842;52.426;4.886;2023-04-03T11:27:47;2.27;;;1.33;;
11572;SDS011;5842;52.426;4.886;2023-04-03T11:30:17;2.20;;;1.10;;
11572;SDS011;5842;52.426;4.886;2023-04-03T11:32:53;2.27;;;1.40;;
11572;SDS011;5842;52.426;4.886;2023-04-03T11:35:24;1.37;;;1.13;;
11572;SDS011;5842;52.426;4.886;2023-04-03T11:37:52;3.17;;;1.50;;
11572;SDS011;5842;52.426;4.886;2023-04-03T11:40:21;1.57;;;1.07;;
11572;SDS011;5842;52.426;4.886;2023-04-03T11:42:51;1.50;;;1.20;;
11572;SDS011;5842;52.426;4.886;2023-04-03T11:48:05;1.57;;;1.40;;
11572;SDS011;5842;52.426;4.886;2023-04-03T11:50:42;2.00;;;1.10;;
11572;SDS011;5842;52.426;4.886;2023-04-03T11:53:26;1.70;;;1.10;;
11572;SDS011;5842;52.426;4.886;2023-04-03T11:55:55;2.90;;;1.40;;
11572;SDS011;5842;52.426;4.886;2023-04-03T11:58:23;1.47;;;1.20;;
11572;SDS011;5842;52.426;4.886;2023-04-03T12:00:55;1.23;;;1.10;;
11572;SDS011;5842;52.426;4.886;2023-04-03T12:03:33;2.23;;;1.23;;
11572;SDS011;5842;52.426;4.886;2023-04-03T12:08:50;1.77;;;1.43;;
11572;SDS011;5842;52.426;4.886;2023-04-03T12:11:23;2.43;;;1.30;;
11572;SDS011;5842;52.426;4.886;2023-04-03T12:14:02;2.33;;;1.40;;
11572;SDS011;5842;52.426;4.886;2023-04-03T12:16:31;2.97;;;1.47;;
11572;SDS011;5842;52.426;4.886;2023-04-03T12:19:00;1.67;;;1.20;;
11572;SDS011;5842;52.426;4.886;2023-04-03T12:24:25;3.10;;;1.23;;
11572;SDS011;5842;52.426;4.886;2023-04-03T12:27:01;3.00;;;1.53;;
11572;SDS011;5842;52.426;4.886;2023-04-03T12:29:33;1.93;;;1.10;;
11572;SDS011;5842;52.426;4.886;2023-04-03T12:32:15;2.30;;;1.10;;
11572;SDS011;5842;52.426;4.886;2023-04-03T12:34:49;1.60;;;1.10;;
11572;SDS011;5842;52.426;4.886;2023-04-03T12:37:21;2.37;;;1.30;;
11572;SDS011;5842;52.426;4.886;2023-04-03T12:39:54;1.33;;;1.17;;
11572;SDS011;5842;52.426;4.886;2023-04-03T12:42:25;4.47;;;1.23;;
11572;SDS011;5842;52.426;4.886;2023-04-03T12:44:57;1.37;;;1.13;;
11572;SDS011;5842;52.426;4.886;2023-04-03T12:47:28;1.97;;;1.33;;
11572;SDS011;5842;52.426;4.886;2023-04-03T12:49:58;1.10;;;1.00;;
11572;SDS011;5842;52.426;4.886;2023-04-03T12:52:30;1.40;;;1.10;;
11572;SDS011;5842;52.426;4.886;2023-04-03T12:55:00;1.73;;;1.30;;
11572;SDS011;5842;52.426;4.886;2023-04-03T12:57:29;1.40;;;1.30;;
11572;SDS011;5842;52.426;4.886;2023-04-03T12:59:57;1.50;;;1.10;;
11572;SDS011;5842;52.426;4.886;2023-04-03T13:02:25;2.27;;;1.37;;
11572;SDS011;5842;52.426;4.886;2023-04-03T13:04:54;2.30;;;1.20;;
11572;SDS011;5842;52.426;4.886;2023-04-03T13:07:23;2.10;;;1.37;;
11572;SDS011;5842;52.426;4.886;2023-04-03T13:10:02;1.40;;;1.20;;
11572;SDS011;5842;52.426;4.886;2023-04-03T13:12:30;1.20;;;1.10;;
11572;SDS011;5842;52.426;4.886;2023-04-03T13:14:58;1.87;;;1.40;;
11572;SDS011;5842;52.426;4.886;2023-04-03T13:17:29;1.60;;;1.30;;
11572;SDS011;5842;52.426;4.886;2023-04-03T13:20:06;2.20;;;1.33;;
11572;SDS011;5842;52.426;4.886;2023-04-03T13:22:36;2.03;;;1.40;;
11572;SDS011;5842;52.426;4.886;2023-04-03T13:25:11;1.50;;;1.23;;
11572;SDS011;5842;52.426;4.886;2023-04-03T13:27:40;1.93;;;1.20;;
11572;SDS011;5842;52.426;4.886;2023-04-03T13:30:17;1.30;;;1.20;;
11572;SDS011;5842;52.426;4.886;2023-04-03T13:32:45;1.60;;;1.30;;
11572;SDS011;5842;52.426;4.886;2023-04-03T13:35:29;1.37;;;1.27;;
11572;SDS011;5842;52.426;4.886;2023-04-03T13:37:58;1.93;;;1.53;;
11572;SDS011;5842;52.426;4.886;2023-04-03T13:40:27;2.27;;;1.37;;
11572;SDS011;5842;52.426;4.886;2023-04-03T13:42:59;3.23;;;1.60;;
11572;SDS011;5842;52.426;4.886;2023-04-03T13:45:30;3.57;;;1.50;;
11572;SDS011;5842;52.426;4.886;2023-04-03T13:48:08;3.33;;;1.63;;
11572;SDS011;5842;52.426;4.886;2023-04-03T13:50:50;1.93;;;1.30;;
11572;SDS011;5842;52.426;4.886;2023-04-03T13:53:18;1.63;;;1.30;;
11572;SDS011;5842;52.426;4.886;2023-04-03T13:56:06;2.70;;;1.40;;
11572;SDS011;5842;52.426;4.886;2023-04-03T13:58:34;2.80;;;1.60;;
11572;SDS011;5842;52.426;4.886;2023-04-03T14:01:07;2.83;;;1.50;;
11572;SDS011;5842;52.426;4.886;2023-04-03T14:03:41;2.10;;;1.30;;
11572;SDS011;5842;52.426;4.886;2023-04-03T14:06:10;2.33;;;1.57;;
11572;SDS011;5842;52.426;4.886;2023-04-03T14:08:38;2.43;;;1.50;;
11572;SDS011;5842;52.426;4.886;2023-04-03T14:11:09;2.93;;;1.43;;
11572;SDS011;5842;52.426;4.886;2023-04-03T14:13:38;2.80;;;1.50;;
11572;SDS011;5842;52.426;4.886;2023-04-03T14:16:06;3.40;;;1.57;;
11572;SDS011;5842;52.426;4.886;2023-04-03T14:18:36;1.83;;;1.40;;
11572;SDS011;5842;52.426;4.886;2023-04-03T14:21:03;3.43;;;1.80;;
11572;SDS011;5842;52.426;4.886;2023-04-03T14:23:31;2.97;;;1.40;;
11572;SDS011;5842;52.426;4.886;2023-04-03T14:26:00;2.70;;;1.30;;
11572;SDS011;5842;52.426;4.886;2023-04-03T14:28:28;2.67;;;1.60;;
11572;SDS011;5842;52.426;4.886;2023-04-03T14:30:56;2.93;;;1.33;;
11572;SDS011;5842;52.426;4.886;2023-04-03T14:33:24;3.93;;;1.50;;
11572;SDS011;5842;52.426;4.886;2023-04-03T14:35:52;3.13;;;1.50;;
11572;SDS011;5842;52.426;4.886;2023-04-03T14:38:22;3.17;;;1.70;;
11572;SDS011;5842;52.426;4.886;2023-04-03T14:40:50;3.20;;;1.50;;
11572;SDS011;5842;52.426;4.886;2023-04-03T14:43:18;2.60;;;1.50;;
11572;SDS011;5842;52.426;4.886;2023-04-03T14:45:48;2.73;;;1.80;;
11572;SDS011;5842;52.426;4.886;2023-04-03T14:48:17;2.93;;;1.57;;
11572;SDS011;5842;52.426;4.886;2023-04-03T14:50:45;3.10;;;1.50;;
11572;SDS011;5842;52.426;4.886;2023-04-03T14:53:13;2.23;;;1.50;;
11572;SDS011;5842;52.426;4.886;2023-04-03T14:55:42;1.30;;;1.20;;
11572;SDS011;5842;52.426;4.886;2023-04-03T14:58:13;2.03;;;1.43;;
11572;SDS011;5842;52.426;4.886;2023-04-03T15:00:41;3.07;;;1.43;;
11572;SDS011;5842;52.426;4.886;2023-04-03T15:03:14;2.27;;;1.50;;
11572;SDS011;5842;52.426;4.886;2023-04-03T15:05:42;2.47;;;1.60;;
11572;SDS011;5842;52.426;4.886;2023-04-03T15:08:13;3.67;;;1.73;;
11572;SDS011;5842;52.426;4.886;2023-04-03T15:10:44;3.10;;;1.70;;
11572;SDS011;5842;52.426;4.886;2023-04-03T15:13:11;2.03;;;1.47;;
11572;SDS011;5842;52.426;4.886;2023-04-03T15:15:39;3.47;;;1.70;;
11572;SDS011;5842;52.426;4.886;2023-04-03T15:18:09;4.07;;;1.90;;
11572;SDS011;5842;52.426;4.886;2023-04-03T15:20:39;1.70;;;1.47;;
11572;SDS011;5842;52.426;4.886;2023-04-03T15:23:08;2.63;;;1.40;;
11572;SDS011;5842;52.426;4.886;2023-04-03T15:25:35;2.70;;;1.43;;
11572;SDS011;5842;52.426;4.886;2023-04-03T15:28:04;3.47;;;1.33;;
11572;SDS011;5842;52.426;4.886;2023-04-03T15:30:32;2.67;;;1.37;;
11572;SDS011;5842;52.426;4.886;2023-04-03T15:33:03;2.70;;;1.57;;
11572;SDS011;5842;52.426;4.886;2023-04-03T15:35:31;2.93;;;1.50;;
11572;SDS011;5842;52.426;4.886;2023-04-03T15:38:00;2.53;;;1.50;;
11572;SDS011;5842;52.426;4.886;2023-04-03T15:40:27;2.27;;;1.50;;
11572;SDS011;5842;52.426;4.886;2023-04-03T15:42:55;3.00;;;1.87;;
11572;SDS011;5842;52.426;4.886;2023-04-03T15:45:22;4.47;;;1.60;;
11572;SDS011;5842;52.426;4.886;2023-04-03T15:47:50;2.23;;;1.60;;
11572;SDS011;5842;52.426;4.886;2023-04-03T15:50:18;2.80;;;1.50;;